8 Mm Glass Import to India

Connect2India provides real time data for 8 Mm Glass import, historical 8 Mm Glass import analysis, current demand in overseas countries and import price of 8 Mm Glass.

8 Mm Glass

8 Mm Glass import data

Date HS Code Product Description Origin Port Destination Port Quantity Value (INR in Million) Unit Per Unit (INR)
2016-09-27 70052990 CLEAR FLOAT GLASS, 8 MM 366 X 214 CM IRAN ICD Loni 2256 0.759 SQM 336.0
2016-09-28 70051090 CLEAR FLOAT GLASS, SIZE 214 CM X 366 CM, THICKNESS 8 MM. IRAN Cochin Sea 1198 0.4443 SQM 370.0
2016-09-28 70052990 CLEAR SHEET GLASS, 8 MM 244 X 183 CM IRAN ICD Loni 2358 0.6852 SQM 290.0
2016-09-29 70052190 CLEAR FLOAT GLASS 8 MM - 3660 MM X 2140 MM SAUDI ARABIA Kanpur - JRY (ICD ) 705 0.2443 SQM 346.0
2016-09-30 94032010 SS BATHROOM CABINET+GLASS SHELF+CERAMIC BASIN & MIRROR SIZE800 MM - 8 SET CHINA Ludhiana 318 0.0321 KGS 100.0
2016-10-01 70031990 3MM CLEAR MISTLITE GLASS 1220*1830 MM(130 PCS/CRATES 8 CRATES) CHINA Cochin Sea 2322 0.3004 SQM 129.0
2016-10-04 70169000 COLIBRI COLL ITEM 01 (15X15 MM-5/8"X5/8") SPA VIS ONE-125 SHEETS (GLASS MOSAIC TILES) ITALY Delhi Air Cargo 11 0.2574 SQM 23398.0
2016-10-07 70051090 CLEAR FLOAT GLASS (LOW IRON) (SIZE 183*244 THICKNESS 8 MM) IRAN Bangalore ICD 469 0.1621 SQM 345.0
2016-10-07 70051090 CLEAR FLOAT GLASS(LOW IRON)(SIZE 214*366CM THICKNESS 8 MM) IRAN Bangalore ICD 399 0.1381 SQM 346.0
2016-10-07 70051090 CLEAR FLOAT GLASS(LOW IRON)(SIZE183*244CM THICKNESS 8 MM) IRAN Bangalore ICD 1876 0.6482 SQM 345.0
2016-10-07 90279090 67450040 NIRS SPACER FOR 8 mm DISPOS. GLASS (DEMO PURPOSE) SWITZERLAND Chennai Air Cargo 1 0.0115 PCS 11501.0
2016-10-07 90279090 NIRS DISPOS GLASS VIALS, 8 mm,QTY (DEMO PURPOSE) SWITZERLAND Chennai Air Cargo 1 0.0023 PCS 2300.0
2016-10-13 70051090 CLEAR FLOAT GLASS 8 MM (SIZE: 2440 MM X 1830 MM) NET WEIGHT6.661 MTS SAUDI ARABIA Kolkata Sea 1392 0.4812 SQM 345.0
2016-10-14 70051090 CLEAR FLOAT GLASS - (SIZE : 183 X 244 CM X 8 MM)OTH. DET. AS PER INV & PL IRAN Mundra 2438 0.8779 SQM 360.0
2016-10-14 70051090 CLEAR FLOAT GLASS - (SIZE : 214 X 305 CM X 8 MM)OTH. DET. AS PER INV & PL IRAN Mundra 1175 0.423 SQM 359.0
2016-10-14 70052990 8 MM CLEAR FLOAT GLASS SIZE 3660 X 2140MM INDONESIA Chennai Sea 470 0.1932 SQM 410.0
2016-10-14 70052990 8 MM CLEAR FLOAT GLASS SIZE 3660 X 2440MM INDONESIA Chennai Sea 464 0.2174 SQM 468.0
2016-10-14 70193900 CARRIER GLASS MAT CM004(113 MM WIDTH)-8 ROLLS (18240 M)113MM X 2280 MTRS UNITED STATES Nhava Sheva Sea 41 0.0411 KGS 1003.0
2016-10-15 70169000 GLASS MOSAIC SHEET SIZE-100*100*8 MM,MODEL-SJG-829(1 M2) CHINA Nhava Sheva Sea 27 0.0146 KGS 540.0
2016-10-15 70169000 GLASS MOSAIC SHEET SIZE-300*300*8 MM,CHIP SIZE-15*15*6 MM,MODEL-MV-2508(10 M2) CHINA Nhava Sheva Sea 112 0.0166 KGS 148.0
2016-10-15 70169000 GLASS MOSAIC SHEET SIZE-300*300*8 MM,CHIP SIZE-73*73 MM,MODEL-HM350A(70 M2) CHINA Nhava Sheva Sea 1136 0.129 KGS 113.0
2016-10-15 70169000 GLASS MOSAIC SHEET SIZE-300*300*8 MM,CHIP SIZE-73*73 MM,MODEL-HM350B(07 M2) CHINA Nhava Sheva Sea 112 0.0129 KGS 115.0
2016-10-15 70169000 GLASS MOSAIC SHEET SIZE-300*300*8 MM,CHIP SIZE-73*73 MM,MODEL-HM350D(13 M2) CHINA Nhava Sheva Sea 208 0.024 KGS 115.0
2016-10-15 70169000 GLASS MOSAIC SHEET SIZE-300*300*8 MM,CHIP SIZE-73*73 MM,MODEL-HM350F(08 M2) CHINA Nhava Sheva Sea 128 0.0147 KGS 115.0
2016-10-15 70169000 GLASS MOSAIC SHEET SIZE-300*300*8 MM,CHIP SIZE-73*73 MM,MODEL-HM350H(08 M2) CHINA Nhava Sheva Sea 128 0.0147 KGS 115.0
2016-10-15 70169000 GLASS MOSAIC SHEET SIZE-300*300*8 MM,CHIP SIZE-73*73 MM,MODEL-HM350I(08 M2) CHINA Nhava Sheva Sea 128 0.0147 KGS 115.0
2016-10-17 74199990 30504 WE ST CONDUCTIVE NI CU GLASS FIBER WOVEN FOR CABLE DIAMETER 3 8 MM SHIELDING EFFECTIVENESS 100 MHZ 45 DB GERMANY Banglore Air Cargo 10 0.001 MTR 95.0
2016-10-22 70199090 GLASS MESH 420, SIZE: 10 X 8 X 1000 MM (1200 M2) FRANCE Nhava Sheva Sea 609 0.8528 KGS 1400.0
2016-10-24 94038900 lbiza Coffee Table Size: 900 x 900 x 425 mm, Material: Aluminium frame + round wicker + T 8 mm tempered clear glass top. CHINA Nhava Sheva Sea 8 0.0948 NOS 11850.0
2016-10-24 94038900 Martini Side Table Size: 585 x 585 x 630 mm, Material: Aluminium frame +W 9 mm flat wicker + T 8 mm tempered clear glass CHINA Nhava Sheva Sea 3 0.0127 NOS 4232.0
2016-10-24 94038900 Unico side table Size: 510 x 510 x 450 mm, Material: Stainless steel & Aluminium frame +8 mm round wicker (without glass CHINA Nhava Sheva Sea 2 0.0162 NOS 8112.0
2016-10-25 70051090 8 MM CLEAR FLOAT GLASS DIMENSION 183 X 244 IRAN Nhava Sheva Sea 1219 0.4363 SQM 357.0
2016-10-26 70051090 CLEAR FLOAT GLASS 8 MM (SIZE: 2440MM X 1830MM) NET WEIGHT 4.44064 MTS SAUDI ARABIA Kolkata Sea 232 0.0799 SQM 344.0
2016-10-26 70051090 CLEAR FLOAT GLASS 8 MM (SIZE: 3660MM X 2140MM) NET WEIGHT 11.2346 MTS SAUDI ARABIA Kolkata Sea 587 0.202 SQM 344.0
2016-10-26 70052990 CLEAR FLOAT GLASS (THICKNESS 8 MM) (SIZE 183*244CM) IRAN Nhava Sheva Sea 375 0.1347 SQM 359.0
2016-10-26 70052990 CLEAR FLOAT GLASS (THICKNESS 8 MM) (SIZE 214*305CM) IRAN Nhava Sheva Sea 131 0.0469 KGS 357.0
2016-10-26 70181090 GLASS BEAD MM 8 CRYSTAL (144 PCS) (STONES ARTICLE MADE OF GLASS) AUSTRIA Bombay Air Cargo 0 0.0011 KGS 0.0
2016-10-27 94039000 SHELF+SUPPORTS 60 D39 ON-SHELF TEMPERED GLASS TH.8 MM. (KITCHEN FURNITURE PARTS & ACCESSORIES) ITALY Tughlakabad 3 0.0037 PCS 1228.0
2016-10-28 70052990 CLEAR FLOAT GLASS 2140 MM X 3210 MM X 8 MM IRAN Ludhiana 1236 0.4495 SQM 363.0
2016-11-01 83024110 SHOWER HINGE 55X90MM FOR 8 TO10 MM GLASS POLISH CHROME FINISH (SH180-C)(DOOR FITTINGS(200PCS) CHINA Chennai Sea 160 0.1815 KGS 1134.0
2016-11-01 83024110 SHOWER HINGE 55X90MM FOR 8 TO10 MM GLASS. POLISH CHROME FINISH (SHL-C)(DOOR FITTINS)(150PCS) CHINA Chennai Sea 147 0.1424 KGS 968.0
2016-11-05 70200090 G17019-1 R863658 GLASS RIP GLASS STRIPES 420 00 X 15 00 X 8 00 MM (GLASS PART) (PARTS FOR PROJECTOR) GERMANY Delhi Air Cargo 509 0.2031 PCS 399.0
2016-11-08 83024110 LW2907A LOCKWOOD ACCESSORIES SEALING STRIP GLASS TO GLASS 180 DEG/8 MM GLASS PVC CHINA Nhava Sheva Sea 220 0.1638 NOS 744.0
2016-11-11 70051090 CLEAR FLOAT GLASS 8 MM, GLJ,18302440, BIX,06 EGYPT Kolkata Sea 643 0.2461 SQM 382.0
2016-11-11 85051900 MAGNETIC PROFILES 180 DEGRE FOR 8 MM GLASS 2500MM STOCK NO.NU TSS 020 (100 SET) CHINA Nhava Sheva Sea 79 0.0657 KGS 831.0

8 Mm Glass Trade Data - Indian Ports

S. No Product Product Code Quantity Value (INR in Million) Unit Origin Port Destination Port
CLEAR FLOAT GLASS 8 T, 2140 X 3600 MM 70051090 1233 0.4402 SQM IRAN ICD Loni
BOROSILICATE GLASS TUBING (SIZE-8*1.5*1500 MM) (COLOR-CLEAR) 70023900 200 0.0097 KGS CHINA Tughlakabad
BOROSILICATE CLEAR GLASS TUBING 8 X 1.5 X 1500 MM 70023900 700 0.0388 KGS CHINA Ludhiana
CLEAR FLOAT GLASS 2140 MM X 3600 MM X 8 MM 70052990 1233 0.444 SQM IRAN Ludhiana
SIDE PID GLASS DELODUR 8 MM BEDRUCKT - BT PART NO:3EAM946989 70071900 48 0.1884 PCS GERMANY Bombay Air Cargo
CLEAR FLOAT GLASS 2140 MM X 3600 MM X 8 MM 70052990 1233 0.4036 SQM IRAN Ludhiana
CLEAR FLOAT GLASS 8 MM - 183CM X 244CM 70051090 2344 0.7825 SQM IRAN Nhava Sheva Sea
CLEAR FLOAT GLASS 8 MM - 214CM X 305CM 70051090 1176 0.3922 SQM IRAN Nhava Sheva Sea
PARA GLASS/8 (86052) WIDTH-1270 MM UNBRANDED (INDUSTRIAL RAW MATERIAL) 70191900 1300 1.1189 SQM NETHERLANDS Patparganj
CLEAR FLOAT GLASS 8 MM - 183CM X 244CM 70051090 1500 0.5008 SQM IRAN Nhava Sheva Sea
CLEAR FLOAT GLASS 8 MM - 214CM X 305CM 70051090 914 0.305 SQM IRAN Nhava Sheva Sea
ULTRA CLEAR GLASS (8 MM) 70049099 984 0.4968 SQM CHINA Chennai Sea
GLASS BEADS.. M.C. BEAD,REG.CUT R 8 MM CRYSTAL HON 70181020 4 0.0044 KGS CZECH REPUBLIC Bombay Air Cargo
GLASS BEADS.. M.C.BEAD,REG,CUT R 8 MM CRYSTAL 70181020 5 0.0042 KGS CZECH REPUBLIC Bombay Air Cargo
GLASS BEADS.. MC BEAD,RONDELL R 8 MM CRYSTAL 70181020 1 7.0E-4 KGS CZECH REPUBLIC Bombay Air Cargo
GLASS BEADS.. MC BEAD,RONDELL R 8 MM CRYSTAL MIX 70181020 1 7.0E-4 KGS CZECH REPUBLIC Bombay Air Cargo
GLASS BEADS.. MC BEAD,RONDELL R 8 MM MIXED COL 70181020 4 0.0024 KGS CZECH REPUBLIC Bombay Air Cargo
MINOTTI-VAN DYCK DINING TABLE L 300 CM BLACK NICKEL BASE, TOP IN GLASS SMOKE GREY THICKNESS MM 8+8 VD300 94038900 1 0.2926 PCS ITALY Nhava Sheva Sea

Looking to import 8 Mm Glass?

With end to end global trade solutions from Connect2India, we enable Indian SMEs to start and grow their business globally

There is a total of 98 countries India imports 8 Mm Glass from. The dollar value of 8 Mm Glass import in 2020-2021 (Apr-Nov) stood at 565.059 USD Million and 1396.339 USD Million in 2018, which shows a growth of 10.58% from the previous year’s import value which was 1262.76 USD Million in 2017. Year on year the import of 8 Mm Glass in India grew by 73.75% during 2014 to 2018.

Preferred nations for indian 8 Mm Glass buyers are China (257.309 USD Million), Malaysia (67.51 USD Million), Germany (38.79 USD Million), USA (28.44 USD Million), Japan (24.45 USD Million) . These 5 countries in total sold 416.5 USD Million value of 8 Mm Glass to India which rounds up to 73.71% of the 8 Mm Glass import into India.

The data provided on the page shows the top 10 countries from where India imports 8 Mm Glass from. In the year 2020-2021 (Apr-Nov), India imported 8 Mm Glass worth 565.059 USD Million as compared to 1396.339 USD Million in the year 2018.

Country Value (USD Million) Share (%)
China 257.309 45.54
Malaysia 67.51 11.95
Germany 38.79 6.86
USA 28.44 5.03
Japan 24.45 4.33
Italy 21.64 3.83
Rep. of Korea 18.18 3.22
Spain 14.93 2.64
TAIWAN 13.93 2.47
Singapore 11.26 1.99

Among the top importing countries, India imported the highest dollar worth of 8 Mm Glass from China with shipments in 2020-2021 (Apr-Nov) valued at 257.31 USD Million which is greater than the previous year 8 Mm Glass shipments from China into India. In second place was Malaysia, from which India imported around 67.51 USD Million worth of 8 Mm Glass. The top 10 countries shared 87.86% of the 8 Mm Glass import to India.

From the 8 Mm Glass importing nations of India, recorded the fastest growth in their 8 Mm Glass export to India with % rise in the 8 Mm Glass import to India.

Below is the list of all countries for 8 Mm Glass import to India.

Country Value (USD Million) Share (%)
Belgium 9.25 1.64
United Kingdom 5.98 1.06
Thailand 5.6 0.99
United Arab Emirates 5.14 0.91
France 4.76 0.84
Egypt 4.58 0.81
Switzerland 3.82 0.68
Bahrain 3.51 0.62
China, Hong Kong SAR 3.15 0.56
Poland 2.59 0.46
Sweden 1.76 0.31
Austria 1.63 0.29
Myanmar 1.46 0.26
Indonesia 1.46 0.26
Saudi Arabia 1.35 0.24
Netherlands 1.32 0.23
Viet Nam 1.18 0.21
Czech Rep. 1.14 0.2
Brazil 1.11 0.2
Turkey 1.07 0.19

Combinedly all the above countries exported 558.3 million dollar of 8 Mm Glass to India.

Yearwise analysis of 8 Mm Glass import to India

Below is the detailed list of 8 Mm Glass import to India with quantity, volume, price, origin port and the destination port.

Increase your 8 Mm Glass imports with steady access to working capital with our import financing solutions at Connect2India.

Looking to import 8 Mm Glass from genuine and best quality Indian suppliers?

8 Mm Glass import analysis - Monthwise

The data shows the top 20 countries from where India imported 8 Mm Glass in November 2020.

  • India Imported 8 Mm Glass worth 35.33 USD million from China in November 2020.
  • The total quantity of 8 Mm Glass imported from China was 16536290.
  • India imported 8 Mm Glass worth of 13.11 USD million in November 2020 alone from Malaysia.
  • India has imported 8 Mm Glass value worth 6.63 USD Million from Japan in November 2020.
  • India imported a volume of 361550 metric tons of 8 Mm Glass from USA in tNovember 2020 and was 4th in the list of countries India imported 8 Mm Glass from.
  • A total of 23556470 quantity of 8 Mm Glass was imported from the mentioned countries.
S.no. Country Qty Value(USD Million) Month year
China 16536290 35.33 November 2020
Malaysia 5537510 13.11 November 2020
Japan 191960 6.63 November 2020
USA 361550 3.9 November 2020
Germany 929160 3.46 November 2020
Spain 400400 2.94 November 2020
Italy 171490 2.87 November 2020
Rep. of Korea 505660 2.81 November 2020
TAIWAN 168840 2.72 November 2020
Belgium 227240 1.6 November 2020
Singapore 19900 1.57 November 2020
Switzerland 5210 1.5 November 2020
Thailand 970030 1.34 November 2020
Egypt 1048370 0.87 November 2020
United Kingdom 142300 0.85 November 2020
Bahrain 1366670 0.77 November 2020
Viet Nam 74220 0.6 November 2020
China, Hong Kong SAR 124789 0.54 November 2020
France 40970 0.47 November 2020
United Arab Emirates 749940 0.43 November 2020

Graphical representation for 8 Mm Glass import

8 Mm Glass - Recent import data

8 Mm Glass in India is imported from more than 98 countries.

In FY 2020-2021 (Apr-Nov), Around 257.31 USD Million of 8 Mm Glass is imported to India from China. It is around 45.54% of the total import of 8 Mm Glass.

How connect2india can help you import 8 Mm Glass?

Connect2India can help you find 8 Mm Glass suppliers / exporters in more than 100 countries, arrange import orders for 8 Mm Glass, find the most effective market to import 8 Mm Glass, help you out with procedures and formalities required to import 8 Mm Glass in India and also assist you in 8 Mm Glass shipment and logistics. Our trade experts are always available for any help regarding the import of 8 Mm Glass and its products. If you want more information, please get in touch with our trade experts here

People Also Ask

From which countries does India import 8 Mm Glass from?

India imports 8 Mm Glass from China (257.309 USD Million), Malaysia (67.51 USD Million), Germany (38.79 USD Million), USA (28.44 USD Million), Japan (24.45 USD Million) .

Whom can I contact for more information on 8 Mm Glass import to India?

You can submit your requirement on Connect2India and our representative will get in touch with you with more information about 8 Mm Glass. Alternatively, you can call us @ +91-7876759999 or email us to info@connect2India.com

Which is the most popular Indian port for 8 Mm Glass import?

Nhava Sheva Sea is the most popular port for 8 Mm Glass import to India

What are the top three import shipments of 8 Mm Glass traded to India?

Following are the top three import shipments of 8 Mm Glass traded to India :

  • CLEAR FLOAT GLASS, 8 MM 366 X 214 CM
  • CLEAR FLOAT GLASS, SIZE 214 CM X 366 CM, THICKNESS 8 MM.
  • CLEAR SHEET GLASS, 8 MM 244 X 183 CM